sensor_id;sensor_type;location;lat;lon;timestamp;P1;durP1;ratioP1;P2;durP2;ratioP2
57297;SDS011;43147;50.972;18.210;2023-02-02T00:01:49;6.00;;;3.60;;
57297;SDS011;43147;50.972;18.210;2023-02-02T00:04:34;9.20;;;3.40;;
57297;SDS011;43147;50.972;18.210;2023-02-02T00:07:01;7.20;;;5.00;;
57297;SDS011;43147;50.972;18.210;2023-02-02T00:09:29;6.80;;;5.30;;
57297;SDS011;43147;50.972;18.210;2023-02-02T00:11:57;15.60;;;5.20;;
57297;SDS011;43147;50.972;18.210;2023-02-02T00:14:23;13.60;;;5.10;;
57297;SDS011;43147;50.972;18.210;2023-02-02T00:16:52;13.70;;;5.20;;
57297;SDS011;43147;50.972;18.210;2023-02-02T00:19:20;12.20;;;4.30;;
57297;SDS011;43147;50.972;18.210;2023-02-02T00:21:48;9.10;;;4.10;;
57297;SDS011;43147;50.972;18.210;2023-02-02T00:24:14;9.50;;;3.10;;
57297;SDS011;43147;50.972;18.210;2023-02-02T00:26:42;14.30;;;5.60;;
57297;SDS011;43147;50.972;18.210;2023-02-02T00:29:12;8.30;;;3.10;;
57297;SDS011;43147;50.972;18.210;2023-02-02T00:31:40;8.20;;;3.30;;
57297;SDS011;43147;50.972;18.210;2023-02-02T00:34:05;9.10;;;3.60;;
57297;SDS011;43147;50.972;18.210;2023-02-02T00:36:31;11.10;;;3.50;;
57297;SDS011;43147;50.972;18.210;2023-02-02T00:38:56;9.40;;;2.50;;
57297;SDS011;43147;50.972;18.210;2023-02-02T00:41:22;10.40;;;2.50;;
57297;SDS011;43147;50.972;18.210;2023-02-02T00:43:48;7.30;;;3.10;;
57297;SDS011;43147;50.972;18.210;2023-02-02T00:46:33;8.60;;;2.00;;
57297;SDS011;43147;50.972;18.210;2023-02-02T00:48:59;10.40;;;3.80;;
57297;SDS011;43147;50.972;18.210;2023-02-02T00:51:25;12.00;;;3.10;;
57297;SDS011;43147;50.972;18.210;2023-02-02T00:53:51;15.90;;;3.10;;
57297;SDS011;43147;50.972;18.210;2023-02-02T00:56:16;3.10;;;2.10;;
57297;SDS011;43147;50.972;18.210;2023-02-02T00:58:42;5.10;;;2.90;;
57297;SDS011;43147;50.972;18.210;2023-02-02T01:01:14;14.90;;;3.60;;
57297;SDS011;43147;50.972;18.210;2023-02-02T01:03:41;15.10;;;3.10;;
57297;SDS011;43147;50.972;18.210;2023-02-02T01:06:07;16.60;;;2.90;;
57297;SDS011;43147;50.972;18.210;2023-02-02T01:08:32;9.10;;;2.70;;
57297;SDS011;43147;50.972;18.210;2023-02-02T01:10:58;8.90;;;2.60;;
57297;SDS011;43147;50.972;18.210;2023-02-02T01:13:24;16.00;;;3.10;;
57297;SDS011;43147;50.972;18.210;2023-02-02T01:15:57;11.20;;;2.90;;
57297;SDS011;43147;50.972;18.210;2023-02-02T01:18:23;6.20;;;2.30;;
57297;SDS011;43147;50.972;18.210;2023-02-02T01:20:59;12.30;;;3.50;;
57297;SDS011;43147;50.972;18.210;2023-02-02T01:23:29;13.80;;;3.30;;
57297;SDS011;43147;50.972;18.210;2023-02-02T01:25:55;20.80;;;3.40;;
57297;SDS011;43147;50.972;18.210;2023-02-02T01:28:22;6.90;;;1.60;;
57297;SDS011;43147;50.972;18.210;2023-02-02T01:30:48;8.90;;;3.20;;
57297;SDS011;43147;50.972;18.210;2023-02-02T01:33:17;7.70;;;2.40;;
57297;SDS011;43147;50.972;18.210;2023-02-02T01:35:46;7.00;;;2.50;;
57297;SDS011;43147;50.972;18.210;2023-02-02T01:38:13;10.50;;;3.30;;
57297;SDS011;43147;50.972;18.210;2023-02-02T01:46:21;23.90;;;3.60;;
57297;SDS011;43147;50.972;18.210;2023-02-02T01:51:17;15.20;;;3.80;;
57297;SDS011;43147;50.972;18.210;2023-02-02T01:53:48;5.60;;;2.10;;
57297;SDS011;43147;50.972;18.210;2023-02-02T01:56:22;10.20;;;2.50;;
57297;SDS011;43147;50.972;18.210;2023-02-02T01:58:50;18.70;;;3.90;;
57297;SDS011;43147;50.972;18.210;2023-02-02T02:01:16;6.90;;;2.30;;
57297;SDS011;43147;50.972;18.210;2023-02-02T02:03:42;15.20;;;2.50;;
57297;SDS011;43147;50.972;18.210;2023-02-02T02:06:11;9.30;;;3.10;;
57297;SDS011;43147;50.972;18.210;2023-02-02T02:11:19;7.40;;;2.20;;
57297;SDS011;43147;50.972;18.210;2023-02-02T02:13:45;17.00;;;2.30;;
57297;SDS011;43147;50.972;18.210;2023-02-02T02:34:32;12.50;;;3.80;;
57297;SDS011;43147;50.972;18.210;2023-02-02T02:37:07;7.00;;;2.00;;
57297;SDS011;43147;50.972;18.210;2023-02-02T02:39:42;7.90;;;2.70;;
57297;SDS011;43147;50.972;18.210;2023-02-02T02:42:13;2.80;;;2.00;;
57297;SDS011;43147;50.972;18.210;2023-02-02T02:44:46;10.00;;;2.90;;
57297;SDS011;43147;50.972;18.210;2023-02-02T02:47:13;24.00;;;4.10;;
57297;SDS011;43147;50.972;18.210;2023-02-02T02:49:42;7.90;;;3.10;;
57297;SDS011;43147;50.972;18.210;2023-02-02T02:52:09;10.80;;;2.60;;
57297;SDS011;43147;50.972;18.210;2023-02-02T02:54:36;12.70;;;3.20;;
57297;SDS011;43147;50.972;18.210;2023-02-02T03:08:40;8.80;;;3.30;;
57297;SDS011;43147;50.972;18.210;2023-02-02T03:11:09;19.20;;;3.40;;
57297;SDS011;43147;50.972;18.210;2023-02-02T03:13:35;24.40;;;5.20;;
57297;SDS011;43147;50.972;18.210;2023-02-02T03:16:01;10.30;;;3.70;;
57297;SDS011;43147;50.972;18.210;2023-02-02T03:18:28;15.00;;;6.30;;
57297;SDS011;43147;50.972;18.210;2023-02-02T03:20:54;18.90;;;3.80;;
57297;SDS011;43147;50.972;18.210;2023-02-02T03:23:20;15.00;;;3.70;;
57297;SDS011;43147;50.972;18.210;2023-02-02T03:25:46;13.60;;;3.10;;
57297;SDS011;43147;50.972;18.210;2023-02-02T03:28:13;20.20;;;4.80;;
57297;SDS011;43147;50.972;18.210;2023-02-02T03:30:39;9.50;;;2.90;;
57297;SDS011;43147;50.972;18.210;2023-02-02T03:33:05;15.70;;;3.70;;
57297;SDS011;43147;50.972;18.210;2023-02-02T03:35:32;13.70;;;3.10;;
57297;SDS011;43147;50.972;18.210;2023-02-02T03:37:57;14.10;;;3.80;;
57297;SDS011;43147;50.972;18.210;2023-02-02T03:40:23;17.90;;;4.90;;
57297;SDS011;43147;50.972;18.210;2023-02-02T03:42:49;31.90;;;8.20;;
57297;SDS011;43147;50.972;18.210;2023-02-02T03:45:14;26.00;;;4.90;;
57297;SDS011;43147;50.972;18.210;2023-02-02T03:47:40;33.50;;;7.00;;
57297;SDS011;43147;50.972;18.210;2023-02-02T03:50:06;27.70;;;8.90;;
57297;SDS011;43147;50.972;18.210;2023-02-02T03:52:33;17.70;;;5.70;;
57297;SDS011;43147;50.972;18.210;2023-02-02T03:54:59;20.50;;;5.90;;
57297;SDS011;43147;50.972;18.210;2023-02-02T03:57:24;13.50;;;5.30;;
57297;SDS011;43147;50.972;18.210;2023-02-02T03:59:50;11.20;;;4.40;;
57297;SDS011;43147;50.972;18.210;2023-02-02T04:02:15;17.90;;;3.10;;
57297;SDS011;43147;50.972;18.210;2023-02-02T04:04:41;16.90;;;3.80;;
57297;SDS011;43147;50.972;18.210;2023-02-02T04:07:07;21.00;;;4.10;;
57297;SDS011;43147;50.972;18.210;2023-02-02T04:09:32;9.90;;;2.60;;
57297;SDS011;43147;50.972;18.210;2023-02-02T04:11:58;16.10;;;2.90;;
57297;SDS011;43147;50.972;18.210;2023-02-02T04:14:24;21.30;;;3.40;;
57297;SDS011;43147;50.972;18.210;2023-02-02T04:16:49;10.80;;;2.80;;
57297;SDS011;43147;50.972;18.210;2023-02-02T04:19:15;17.20;;;3.50;;
57297;SDS011;43147;50.972;18.210;2023-02-02T04:21:41;13.30;;;3.70;;
57297;SDS011;43147;50.972;18.210;2023-02-02T04:24:10;15.00;;;3.70;;
57297;SDS011;43147;50.972;18.210;2023-02-02T04:26:37;12.90;;;3.10;;
57297;SDS011;43147;50.972;18.210;2023-02-02T04:29:02;10.60;;;3.30;;
57297;SDS011;43147;50.972;18.210;2023-02-02T04:31:28;17.00;;;3.70;;
57297;SDS011;43147;50.972;18.210;2023-02-02T04:33:56;22.90;;;4.20;;
57297;SDS011;43147;50.972;18.210;2023-02-02T04:36:21;23.50;;;3.90;;
57297;SDS011;43147;50.972;18.210;2023-02-02T04:38:48;12.70;;;2.70;;
57297;SDS011;43147;50.972;18.210;2023-02-02T04:41:14;10.10;;;2.50;;
57297;SDS011;43147;50.972;18.210;2023-02-02T04:43:40;16.40;;;2.90;;
57297;SDS011;43147;50.972;18.210;2023-02-02T04:46:06;12.50;;;2.80;;
57297;SDS011;43147;50.972;18.210;2023-02-02T04:48:31;17.60;;;4.10;;
57297;SDS011;43147;50.972;18.210;2023-02-02T04:51:01;21.60;;;3.30;;
57297;SDS011;43147;50.972;18.210;2023-02-02T04:53:28;25.00;;;3.00;;
57297;SDS011;43147;50.972;18.210;2023-02-02T04:55:54;10.70;;;1.80;;
57297;SDS011;43147;50.972;18.210;2023-02-02T04:58:19;8.40;;;2.90;;
57297;SDS011;43147;50.972;18.210;2023-02-02T05:00:45;14.90;;;3.10;;
57297;SDS011;43147;50.972;18.210;2023-02-02T05:03:11;19.10;;;3.90;;
57297;SDS011;43147;50.972;18.210;2023-02-02T05:05:36;16.20;;;3.00;;
57297;SDS011;43147;50.972;18.210;2023-02-02T05:08:02;13.50;;;2.50;;
57297;SDS011;43147;50.972;18.210;2023-02-02T05:10:30;10.10;;;2.30;;
57297;SDS011;43147;50.972;18.210;2023-02-02T05:12:56;16.70;;;2.30;;
57297;SDS011;43147;50.972;18.210;2023-02-02T05:15:21;2.90;;;1.70;;
57297;SDS011;43147;50.972;18.210;2023-02-02T05:17:47;10.10;;;2.10;;
57297;SDS011;43147;50.972;18.210;2023-02-02T05:20:13;5.40;;;1.50;;
57297;SDS011;43147;50.972;18.210;2023-02-02T05:22:39;13.60;;;2.50;;
57297;SDS011;43147;50.972;18.210;2023-02-02T05:25:06;13.10;;;2.70;;
57297;SDS011;43147;50.972;18.210;2023-02-02T05:27:32;8.50;;;2.30;;
57297;SDS011;43147;50.972;18.210;2023-02-02T05:29:57;17.40;;;5.50;;
57297;SDS011;43147;50.972;18.210;2023-02-02T05:32:23;18.80;;;4.70;;
57297;SDS011;43147;50.972;18.210;2023-02-02T05:34:49;23.20;;;5.40;;
57297;SDS011;43147;50.972;18.210;2023-02-02T05:37:15;17.40;;;5.40;;
57297;SDS011;43147;50.972;18.210;2023-02-02T05:39:41;15.00;;;3.60;;
57297;SDS011;43147;50.972;18.210;2023-02-02T05:42:06;22.20;;;4.90;;
57297;SDS011;43147;50.972;18.210;2023-02-02T05:44:34;13.70;;;3.80;;
57297;SDS011;43147;50.972;18.210;2023-02-02T05:47:00;19.20;;;4.30;;
57297;SDS011;43147;50.972;18.210;2023-02-02T05:49:28;22.50;;;6.80;;
57297;SDS011;43147;50.972;18.210;2023-02-02T05:51:55;66.50;;;21.50;;
57297;SDS011;43147;50.972;18.210;2023-02-02T05:54:22;34.90;;;14.10;;
57297;SDS011;43147;50.972;18.210;2023-02-02T05:56:48;15.90;;;6.40;;
57297;SDS011;43147;50.972;18.210;2023-02-02T05:59:16;11.80;;;4.20;;
57297;SDS011;43147;50.972;18.210;2023-02-02T06:01:43;6.30;;;4.10;;
57297;SDS011;43147;50.972;18.210;2023-02-02T06:04:11;16.20;;;4.10;;
57297;SDS011;43147;50.972;18.210;2023-02-02T06:06:37;13.90;;;3.70;;
57297;SDS011;43147;50.972;18.210;2023-02-02T06:09:04;15.50;;;3.30;;
57297;SDS011;43147;50.972;18.210;2023-02-02T06:11:30;12.80;;;3.50;;
57297;SDS011;43147;50.972;18.210;2023-02-02T06:13:56;13.40;;;2.60;;
57297;SDS011;43147;50.972;18.210;2023-02-02T06:16:21;14.20;;;3.60;;
57297;SDS011;43147;50.972;18.210;2023-02-02T06:18:47;10.60;;;2.70;;
57297;SDS011;43147;50.972;18.210;2023-02-02T06:21:13;13.90;;;3.20;;
57297;SDS011;43147;50.972;18.210;2023-02-02T06:23:39;13.60;;;4.10;;
57297;SDS011;43147;50.972;18.210;2023-02-02T06:26:10;15.70;;;3.60;;
57297;SDS011;43147;50.972;18.210;2023-02-02T06:28:39;10.20;;;3.50;;
57297;SDS011;43147;50.972;18.210;2023-02-02T06:31:05;16.20;;;3.90;;
57297;SDS011;43147;50.972;18.210;2023-02-02T06:33:33;17.30;;;5.10;;
57297;SDS011;43147;50.972;18.210;2023-02-02T06:36:00;8.20;;;2.30;;
57297;SDS011;43147;50.972;18.210;2023-02-02T06:38:26;9.20;;;2.50;;
57297;SDS011;43147;50.972;18.210;2023-02-02T06:40:52;10.70;;;2.40;;
57297;SDS011;43147;50.972;18.210;2023-02-02T06:43:18;11.60;;;4.10;;
57297;SDS011;43147;50.972;18.210;2023-02-02T06:45:43;7.70;;;3.00;;
57297;SDS011;43147;50.972;18.210;2023-02-02T06:48:09;14.40;;;2.90;;
57297;SDS011;43147;50.972;18.210;2023-02-02T06:50:35;18.00;;;3.40;;
57297;SDS011;43147;50.972;18.210;2023-02-02T06:53:02;9.60;;;2.70;;
57297;SDS011;43147;50.972;18.210;2023-02-02T06:55:28;12.10;;;3.40;;
57297;SDS011;43147;50.972;18.210;2023-02-02T06:57:57;14.40;;;3.60;;
57297;SDS011;43147;50.972;18.210;2023-02-02T07:00:24;12.20;;;2.70;;
57297;SDS011;43147;50.972;18.210;2023-02-02T07:02:53;6.60;;;3.20;;
57297;SDS011;43147;50.972;18.210;2023-02-02T07:05:19;12.60;;;3.30;;
57297;SDS011;43147;50.972;18.210;2023-02-02T07:07:45;16.40;;;4.00;;
57297;SDS011;43147;50.972;18.210;2023-02-02T07:10:11;12.60;;;3.00;;
57297;SDS011;43147;50.972;18.210;2023-02-02T07:12:37;10.40;;;2.70;;
57297;SDS011;43147;50.972;18.210;2023-02-02T07:15:03;10.60;;;3.60;;
57297;SDS011;43147;50.972;18.210;2023-02-02T07:17:29;8.20;;;2.70;;
57297;SDS011;43147;50.972;18.210;2023-02-02T07:19:54;11.60;;;2.90;;
57297;SDS011;43147;50.972;18.210;2023-02-02T07:22:20;6.70;;;2.30;;
57297;SDS011;43147;50.972;18.210;2023-02-02T07:24:46;8.70;;;4.00;;
57297;SDS011;43147;50.972;18.210;2023-02-02T07:27:11;6.70;;;2.10;;
57297;SDS011;43147;50.972;18.210;2023-02-02T07:29:38;8.20;;;3.10;;
57297;SDS011;43147;50.972;18.210;2023-02-02T07:32:03;9.00;;;2.60;;
57297;SDS011;43147;50.972;18.210;2023-02-02T07:34:31;8.50;;;2.70;;
57297;SDS011;43147;50.972;18.210;2023-02-02T07:37:01;7.40;;;2.90;;
57297;SDS011;43147;50.972;18.210;2023-02-02T07:39:26;4.50;;;2.30;;
57297;SDS011;43147;50.972;18.210;2023-02-02T07:41:52;8.50;;;3.30;;
57297;SDS011;43147;50.972;18.210;2023-02-02T07:44:17;13.00;;;2.90;;
57297;SDS011;43147;50.972;18.210;2023-02-02T07:46:43;14.70;;;4.40;;
57297;SDS011;43147;50.972;18.210;2023-02-02T07:49:11;19.20;;;5.40;;
57297;SDS011;43147;50.972;18.210;2023-02-02T07:51:38;12.80;;;6.40;;
57297;SDS011;43147;50.972;18.210;2023-02-02T07:54:04;10.40;;;3.90;;
57297;SDS011;43147;50.972;18.210;2023-02-02T07:56:30;10.10;;;4.20;;
57297;SDS011;43147;50.972;18.210;2023-02-02T07:58:56;11.50;;;4.30;;
57297;SDS011;43147;50.972;18.210;2023-02-02T08:01:22;10.00;;;3.40;;
57297;SDS011;43147;50.972;18.210;2023-02-02T08:03:50;10.80;;;4.00;;
57297;SDS011;43147;50.972;18.210;2023-02-02T08:06:18;14.30;;;3.80;;
57297;SDS011;43147;50.972;18.210;2023-02-02T08:08:46;10.30;;;3.70;;
57297;SDS011;43147;50.972;18.210;2023-02-02T08:11:13;11.70;;;3.50;;
57297;SDS011;43147;50.972;18.210;2023-02-02T08:13:40;8.30;;;3.20;;
57297;SDS011;43147;50.972;18.210;2023-02-02T08:16:06;11.40;;;3.80;;
57297;SDS011;43147;50.972;18.210;2023-02-02T08:18:33;4.30;;;2.00;;
57297;SDS011;43147;50.972;18.210;2023-02-02T08:20:59;7.80;;;3.10;;
57297;SDS011;43147;50.972;18.210;2023-02-02T08:23:29;12.20;;;4.10;;
57297;SDS011;43147;50.972;18.210;2023-02-02T08:26:30;11.50;;;3.70;;
57297;SDS011;43147;50.972;18.210;2023-02-02T08:28:54;7.50;;;3.30;;
57297;SDS011;43147;50.972;18.210;2023-02-02T08:31:32;13.10;;;4.10;;
57297;SDS011;43147;50.972;18.210;2023-02-02T08:34:00;9.20;;;3.40;;
57297;SDS011;43147;50.972;18.210;2023-02-02T08:36:27;11.10;;;4.10;;
57297;SDS011;43147;50.972;18.210;2023-02-02T08:38:54;10.00;;;3.90;;
57297;SDS011;43147;50.972;18.210;2023-02-02T08:41:21;10.40;;;3.80;;
57297;SDS011;43147;50.972;18.210;2023-02-02T08:43:48;6.70;;;2.80;;
57297;SDS011;43147;50.972;18.210;2023-02-02T08:46:15;7.90;;;3.20;;
57297;SDS011;43147;50.972;18.210;2023-02-02T08:48:42;8.90;;;2.90;;
57297;SDS011;43147;50.972;18.210;2023-02-02T08:51:11;11.30;;;3.70;;
57297;SDS011;43147;50.972;18.210;2023-02-02T08:53:40;14.30;;;4.60;;
57297;SDS011;43147;50.972;18.210;2023-02-02T08:56:08;14.70;;;4.40;;
57297;SDS011;43147;50.972;18.210;2023-02-02T08:58:35;8.70;;;3.80;;
57297;SDS011;43147;50.972;18.210;2023-02-02T09:03:34;16.10;;;4.50;;
57297;SDS011;43147;50.972;18.210;2023-02-02T09:06:08;7.60;;;2.80;;
57297;SDS011;43147;50.972;18.210;2023-02-02T09:08:35;6.70;;;2.20;;
57297;SDS011;43147;50.972;18.210;2023-02-02T09:11:05;3.90;;;1.90;;
57297;SDS011;43147;50.972;18.210;2023-02-02T09:13:32;10.80;;;2.30;;
57297;SDS011;43147;50.972;18.210;2023-02-02T09:16:00;9.00;;;3.50;;
57297;SDS011;43147;50.972;18.210;2023-02-02T09:18:26;7.80;;;2.20;;
57297;SDS011;43147;50.972;18.210;2023-02-02T09:20:51;15.00;;;3.70;;
57297;SDS011;43147;50.972;18.210;2023-02-02T09:23:17;7.00;;;2.30;;
57297;SDS011;43147;50.972;18.210;2023-02-02T09:25:42;8.10;;;2.80;;
57297;SDS011;43147;50.972;18.210;2023-02-02T09:28:08;2.90;;;1.50;;
57297;SDS011;43147;50.972;18.210;2023-02-02T09:30:36;6.80;;;3.30;;
57297;SDS011;43147;50.972;18.210;2023-02-02T09:33:02;7.40;;;1.50;;
57297;SDS011;43147;50.972;18.210;2023-02-02T09:35:28;10.80;;;3.20;;
57297;SDS011;43147;50.972;18.210;2023-02-02T09:37:53;5.40;;;2.80;;
57297;SDS011;43147;50.972;18.210;2023-02-02T09:40:21;6.60;;;2.70;;
57297;SDS011;43147;50.972;18.210;2023-02-02T09:50:49;3.10;;;1.30;;
57297;SDS011;43147;50.972;18.210;2023-02-02T09:55:47;2.30;;;1.50;;
57297;SDS011;43147;50.972;18.210;2023-02-02T10:01:07;2.30;;;1.10;;
57297;SDS011;43147;50.972;18.210;2023-02-02T10:03:49;2.40;;;1.20;;
57297;SDS011;43147;50.972;18.210;2023-02-02T10:06:34;3.00;;;1.50;;
57297;SDS011;43147;50.972;18.210;2023-02-02T10:11:51;2.80;;;1.50;;
57297;SDS011;43147;50.972;18.210;2023-02-02T10:14:25;6.30;;;2.00;;
57297;SDS011;43147;50.972;18.210;2023-02-02T10:16:54;4.10;;;2.10;;
57297;SDS011;43147;50.972;18.210;2023-02-02T10:19:22;4.80;;;2.00;;
57297;SDS011;43147;50.972;18.210;2023-02-02T10:21:56;11.20;;;3.00;;
57297;SDS011;43147;50.972;18.210;2023-02-02T10:24:29;5.40;;;3.10;;
57297;SDS011;43147;50.972;18.210;2023-02-02T10:26:56;3.80;;;2.10;;
57297;SDS011;43147;50.972;18.210;2023-02-02T10:51:44;8.40;;;3.20;;
57297;SDS011;43147;50.972;18.210;2023-02-02T10:57:11;8.50;;;3.40;;
57297;SDS011;43147;50.972;18.210;2023-02-02T10:59:45;10.60;;;3.50;;
57297;SDS011;43147;50.972;18.210;2023-02-02T11:02:19;11.90;;;3.30;;
57297;SDS011;43147;50.972;18.210;2023-02-02T11:04:45;3.60;;;1.90;;
57297;SDS011;43147;50.972;18.210;2023-02-02T11:07:29;7.10;;;2.70;;
57297;SDS011;43147;50.972;18.210;2023-02-02T11:09:54;11.50;;;2.30;;
57297;SDS011;43147;50.972;18.210;2023-02-02T11:15:01;7.60;;;3.80;;
57297;SDS011;43147;50.972;18.210;2023-02-02T11:17:32;5.90;;;3.30;;
57297;SDS011;43147;50.972;18.210;2023-02-02T11:19:59;6.50;;;2.80;;
57297;SDS011;43147;50.972;18.210;2023-02-02T11:22:34;4.00;;;2.70;;
57297;SDS011;43147;50.972;18.210;2023-02-02T11:27:52;2.30;;;1.70;;
57297;SDS011;43147;50.972;18.210;2023-02-02T11:30:23;10.20;;;2.90;;
57297;SDS011;43147;50.972;18.210;2023-02-02T11:32:51;6.60;;;2.40;;
57297;SDS011;43147;50.972;18.210;2023-02-02T11:35:21;5.90;;;2.40;;
57297;SDS011;43147;50.972;18.210;2023-02-02T11:42:53;6.50;;;2.20;;
57297;SDS011;43147;50.972;18.210;2023-02-02T11:45:36;3.00;;;2.00;;
57297;SDS011;43147;50.972;18.210;2023-02-02T11:48:14;5.00;;;2.60;;
57297;SDS011;43147;50.972;18.210;2023-02-02T11:50:49;3.60;;;2.20;;
57297;SDS011;43147;50.972;18.210;2023-02-02T11:53:20;6.90;;;3.30;;
57297;SDS011;43147;50.972;18.210;2023-02-02T11:56:09;7.60;;;3.50;;
57297;SDS011;43147;50.972;18.210;2023-02-02T11:58:45;6.10;;;3.60;;
57297;SDS011;43147;50.972;18.210;2023-02-02T12:03:52;5.60;;;2.80;;
57297;SDS011;43147;50.972;18.210;2023-02-02T12:06:20;3.40;;;1.80;;
57297;SDS011;43147;50.972;18.210;2023-02-02T12:08:48;5.10;;;1.90;;
57297;SDS011;43147;50.972;18.210;2023-02-02T12:11:21;5.40;;;2.50;;
57297;SDS011;43147;50.972;18.210;2023-02-02T12:19:47;5.70;;;2.70;;
57297;SDS011;43147;50.972;18.210;2023-02-02T12:22:39;8.00;;;2.90;;
57297;SDS011;43147;50.972;18.210;2023-02-02T12:27:56;5.10;;;3.10;;
57297;SDS011;43147;50.972;18.210;2023-02-02T12:30:35;5.40;;;3.00;;
57297;SDS011;43147;50.972;18.210;2023-02-02T12:36:38;6.80;;;3.80;;
57297;SDS011;43147;50.972;18.210;2023-02-02T12:41:47;4.30;;;3.40;;
57297;SDS011;43147;50.972;18.210;2023-02-02T12:52:33;7.10;;;4.00;;
57297;SDS011;43147;50.972;18.210;2023-02-02T13:09:32;4.10;;;2.80;;
57297;SDS011;43147;50.972;18.210;2023-02-02T13:12:06;6.30;;;3.50;;
57297;SDS011;43147;50.972;18.210;2023-02-02T13:14:34;10.00;;;4.00;;
57297;SDS011;43147;50.972;18.210;2023-02-02T13:17:10;8.80;;;3.50;;
57297;SDS011;43147;50.972;18.210;2023-02-02T13:19:59;10.70;;;3.40;;
57297;SDS011;43147;50.972;18.210;2023-02-02T13:22:31;7.70;;;5.00;;
57297;SDS011;43147;50.972;18.210;2023-02-02T13:25:02;7.10;;;5.20;;
57297;SDS011;43147;50.972;18.210;2023-02-02T13:27:32;7.90;;;3.70;;
57297;SDS011;43147;50.972;18.210;2023-02-02T13:32:37;6.00;;;3.20;;
57297;SDS011;43147;50.972;18.210;2023-02-02T13:45:42;10.60;;;4.90;;
57297;SDS011;43147;50.972;18.210;2023-02-02T13:48:48;3.80;;;2.70;;
57297;SDS011;43147;50.972;18.210;2023-02-02T14:01:24;5.60;;;3.30;;
57297;SDS011;43147;50.972;18.210;2023-02-02T14:03:50;10.50;;;4.30;;
57297;SDS011;43147;50.972;18.210;2023-02-02T14:06:19;6.10;;;3.90;;
57297;SDS011;43147;50.972;18.210;2023-02-02T14:08:47;7.30;;;4.90;;
57297;SDS011;43147;50.972;18.210;2023-02-02T14:11:21;12.00;;;7.00;;
57297;SDS011;43147;50.972;18.210;2023-02-02T14:13:54;14.50;;;5.20;;
57297;SDS011;43147;50.972;18.210;2023-02-02T14:39:56;11.10;;;4.40;;
57297;SDS011;43147;50.972;18.210;2023-02-02T14:48:38;14.40;;;8.50;;
57297;SDS011;43147;50.972;18.210;2023-02-02T14:51:17;8.60;;;3.80;;
57297;SDS011;43147;50.972;18.210;2023-02-02T14:54:02;7.50;;;3.70;;
57297;SDS011;43147;50.972;18.210;2023-02-02T14:56:40;8.10;;;7.10;;
57297;SDS011;43147;50.972;18.210;2023-02-02T14:59:20;12.00;;;6.80;;
57297;SDS011;43147;50.972;18.210;2023-02-02T15:02:07;5.80;;;3.90;;
57297;SDS011;43147;50.972;18.210;2023-02-02T15:04:39;9.00;;;1.90;;
57297;SDS011;43147;50.972;18.210;2023-02-02T15:09:46;4.20;;;2.70;;
57297;SDS011;43147;50.972;18.210;2023-02-02T15:14:55;3.50;;;2.10;;
57297;SDS011;43147;50.972;18.210;2023-02-02T15:17:32;4.40;;;2.90;;
57297;SDS011;43147;50.972;18.210;2023-02-02T15:25:24;7.50;;;2.50;;
57297;SDS011;43147;50.972;18.210;2023-02-02T15:28:09;6.50;;;3.50;;
57297;SDS011;43147;50.972;18.210;2023-02-02T15:30:36;7.30;;;2.50;;
57297;SDS011;43147;50.972;18.210;2023-02-02T15:33:05;11.30;;;3.60;;
57297;SDS011;43147;50.972;18.210;2023-02-02T15:35:36;11.60;;;3.30;;
57297;SDS011;43147;50.972;18.210;2023-02-02T15:38:03;5.70;;;2.90;;
57297;SDS011;43147;50.972;18.210;2023-02-02T15:40:31;7.50;;;3.00;;
57297;SDS011;43147;50.972;18.210;2023-02-02T15:43:04;5.00;;;2.60;;
57297;SDS011;43147;50.972;18.210;2023-02-02T15:47:59;6.10;;;2.80;;
57297;SDS011;43147;50.972;18.210;2023-02-02T15:50:28;14.40;;;3.90;;
57297;SDS011;43147;50.972;18.210;2023-02-02T15:52:54;11.60;;;3.80;;
57297;SDS011;43147;50.972;18.210;2023-02-02T15:55:29;10.70;;;4.70;;
57297;SDS011;43147;50.972;18.210;2023-02-02T15:57:56;8.80;;;3.70;;
57297;SDS011;43147;50.972;18.210;2023-02-02T16:03:05;6.50;;;3.10;;
57297;SDS011;43147;50.972;18.210;2023-02-02T16:08:05;12.00;;;5.10;;
57297;SDS011;43147;50.972;18.210;2023-02-02T16:10:35;19.10;;;7.80;;
57297;SDS011;43147;50.972;18.210;2023-02-02T16:13:01;33.10;;;12.30;;
57297;SDS011;43147;50.972;18.210;2023-02-02T16:15:28;17.90;;;7.70;;
57297;SDS011;43147;50.972;18.210;2023-02-02T16:17:59;22.10;;;8.40;;
57297;SDS011;43147;50.972;18.210;2023-02-02T16:20:26;20.30;;;8.80;;
57297;SDS011;43147;50.972;18.210;2023-02-02T16:22:53;25.80;;;6.70;;
57297;SDS011;43147;50.972;18.210;2023-02-02T16:25:20;12.30;;;4.10;;
57297;SDS011;43147;50.972;18.210;2023-02-02T16:27:46;10.10;;;4.40;;
57297;SDS011;43147;50.972;18.210;2023-02-02T16:30:23;13.30;;;4.30;;
57297;SDS011;43147;50.972;18.210;2023-02-02T16:32:51;11.60;;;4.70;;
57297;SDS011;43147;50.972;18.210;2023-02-02T16:41:03;11.20;;;4.20;;
57297;SDS011;43147;50.972;18.210;2023-02-02T16:43:31;8.40;;;3.90;;
57297;SDS011;43147;50.972;18.210;2023-02-02T16:49:01;11.10;;;3.80;;
57297;SDS011;43147;50.972;18.210;2023-02-02T16:51:30;7.20;;;3.00;;
57297;SDS011;43147;50.972;18.210;2023-02-02T16:56:34;6.20;;;3.70;;
57297;SDS011;43147;50.972;18.210;2023-02-02T16:59:12;16.50;;;4.10;;
57297;SDS011;43147;50.972;18.210;2023-02-02T17:01:40;12.60;;;4.60;;
57297;SDS011;43147;50.972;18.210;2023-02-02T17:04:13;11.80;;;5.20;;
57297;SDS011;43147;50.972;18.210;2023-02-02T17:06:46;8.60;;;3.40;;
57297;SDS011;43147;50.972;18.210;2023-02-02T17:17:16;5.50;;;2.80;;
57297;SDS011;43147;50.972;18.210;2023-02-02T17:19:41;8.50;;;4.10;;
57297;SDS011;43147;50.972;18.210;2023-02-02T17:22:07;5.30;;;3.10;;
57297;SDS011;43147;50.972;18.210;2023-02-02T17:24:34;8.40;;;3.40;;
57297;SDS011;43147;50.972;18.210;2023-02-02T17:26:59;9.60;;;4.60;;
57297;SDS011;43147;50.972;18.210;2023-02-02T17:29:25;7.70;;;3.60;;
57297;SDS011;43147;50.972;18.210;2023-02-02T17:31:51;16.10;;;7.50;;
57297;SDS011;43147;50.972;18.210;2023-02-02T17:34:17;18.90;;;8.10;;
57297;SDS011;43147;50.972;18.210;2023-02-02T17:36:43;18.00;;;7.40;;
57297;SDS011;43147;50.972;18.210;2023-02-02T17:39:09;14.60;;;7.10;;
57297;SDS011;43147;50.972;18.210;2023-02-02T17:41:35;5.70;;;3.20;;
57297;SDS011;43147;50.972;18.210;2023-02-02T17:44:02;8.00;;;5.00;;
57297;SDS011;43147;50.972;18.210;2023-02-02T17:46:30;11.70;;;4.60;;
57297;SDS011;43147;50.972;18.210;2023-02-02T17:48:57;9.40;;;4.00;;
57297;SDS011;43147;50.972;18.210;2023-02-02T17:51:23;10.30;;;4.70;;
57297;SDS011;43147;50.972;18.210;2023-02-02T17:53:49;11.50;;;4.90;;
57297;SDS011;43147;50.972;18.210;2023-02-02T17:56:16;6.60;;;3.40;;
57297;SDS011;43147;50.972;18.210;2023-02-02T17:58:45;9.40;;;4.20;;
57297;SDS011;43147;50.972;18.210;2023-02-02T18:01:10;10.70;;;4.70;;
57297;SDS011;43147;50.972;18.210;2023-02-02T18:03:37;19.30;;;8.90;;
57297;SDS011;43147;50.972;18.210;2023-02-02T18:06:04;20.70;;;6.40;;
57297;SDS011;43147;50.972;18.210;2023-02-02T18:08:30;18.00;;;6.20;;
57297;SDS011;43147;50.972;18.210;2023-02-02T18:10:56;11.90;;;5.30;;
57297;SDS011;43147;50.972;18.210;2023-02-02T18:13:23;15.60;;;5.90;;
57297;SDS011;43147;50.972;18.210;2023-02-02T18:15:50;7.50;;;3.30;;
57297;SDS011;43147;50.972;18.210;2023-02-02T18:18:16;13.60;;;6.40;;
57297;SDS011;43147;50.972;18.210;2023-02-02T18:20:43;18.50;;;7.10;;